Main page
METAR-TAF:

METAR-TAF

Airports :

Bahawalpur Airport

Bahawalpur, Pakistan

latitude: 29-20-53N, longitude: 71-43-04E, elevation: 119 m

METAR: missing

Time: 12:35 (07:35 UTC)

Forecast

The report was made 3 hours and 25 minutes ago, at 04:10 UTC
Forecast valid from 30 at 06 UTC to 30 at 24 UTC
Wind 10 kt from the Northeast
Visibility: 4000 m
Scattered clouds at a height of 4000 ft
Scattered clouds at a height of 10000 ft
Probability 30% :
Temporary
from 30 at 12 UTC to 30 at 16 UTC
Wind 20 kt from the North
Visibility: 2000 m
Few clouds at a height of 3000 ft, Cumulonimbus.
Scattered clouds at a height of 4000 ft
Broken clouds at a height of 10000 ft
thunderstorm, rain

TAF: OPBW 300410Z 3006/3024 05010KT 4000 SCT040 SCT100 TX38/3010Z PROB30 TEMPO 3012/3016 36020KT 2000 TSRA FEW030CB SCT040 BKN100

Weather observations and forecasts of more than 4000 airports (METAR and TAF reports).

The available stations are represented by yellow and red dots on the map.

Hover mouse over dot to see the name of the station.

Then click to see weather observations and forecasts.

To change the map : click on the green buttons with a black cross to zoom in, on the green button with a dash to zoom out, or on the green arrows for adjacent maps.


METAR-TAF: